createdAt,value
2023-09-30T00:01:53.304Z,11.60
2023-09-30T00:04:22.982Z,6.23
2023-09-30T00:06:50.990Z,11.00
2023-09-30T00:09:18.931Z,11.30
2023-09-30T00:11:46.851Z,9.10
2023-09-30T00:14:14.833Z,9.57
2023-09-30T00:16:42.798Z,9.77
2023-09-30T00:19:10.979Z,12.20
2023-09-30T00:21:40.463Z,10.77
2023-09-30T00:24:08.924Z,11.10
2023-09-30T00:26:36.866Z,7.37
2023-09-30T00:29:06.225Z,8.30
2023-09-30T00:31:34.179Z,7.23
2023-09-30T00:34:02.208Z,9.93
2023-09-30T00:36:30.298Z,7.20
2023-09-30T00:38:59.655Z,6.57
2023-09-30T00:41:27.632Z,10.97
2023-09-30T00:43:55.808Z,10.80
2023-09-30T00:46:28.246Z,11.57
2023-09-30T00:48:56.353Z,14.13
2023-09-30T00:51:24.385Z,10.03
2023-09-30T00:53:52.492Z,20.17
2023-09-30T00:56:21.822Z,17.00
2023-09-30T00:58:52.306Z,5.70
2023-09-30T01:01:20.739Z,13.27
2023-09-30T01:03:48.926Z,10.27
2023-09-30T01:06:16.951Z,5.93
2023-09-30T01:08:45.096Z,8.70
2023-09-30T01:11:13.097Z,12.97
2023-09-30T01:13:44.456Z,10.97
2023-09-30T01:16:12.663Z,17.07
2023-09-30T01:18:41.380Z,8.13
2023-09-30T01:21:09.659Z,16.93
2023-09-30T01:23:38.953Z,10.10
2023-09-30T01:26:10.002Z,7.43
2023-09-30T01:28:38.306Z,11.63
2023-09-30T01:31:06.485Z,11.47
2023-09-30T01:33:34.591Z,7.20
2023-09-30T01:36:02.907Z,14.73
2023-09-30T01:38:30.797Z,9.83
2023-09-30T01:41:01.293Z,8.20
2023-09-30T01:43:31.316Z,11.93
2023-09-30T01:45:59.701Z,15.53
2023-09-30T01:48:28.086Z,7.27
2023-09-30T01:50:56.050Z,8.13
2023-09-30T01:53:24.004Z,9.73
2023-09-30T01:55:51.956Z,10.37
2023-09-30T01:58:21.320Z,9.73
2023-09-30T02:00:49.295Z,13.33
2023-09-30T02:03:18.475Z,22.43
2023-09-30T02:05:46.464Z,7.40
2023-09-30T02:08:14.920Z,9.67
2023-09-30T02:10:43.115Z,6.80
2023-09-30T02:13:11.055Z,12.63
2023-09-30T02:15:43.449Z,9.67
2023-09-30T02:18:11.535Z,14.47
2023-09-30T02:20:40.772Z,13.27
2023-09-30T02:23:08.764Z,12.40
2023-09-30T02:25:36.662Z,9.27
2023-09-30T02:28:05.086Z,7.70
2023-09-30T02:30:33.057Z,11.97
2023-09-30T02:33:02.614Z,6.93
2023-09-30T02:35:30.711Z,5.33
2023-09-30T02:38:00.071Z,8.03
2023-09-30T02:40:27.981Z,9.90
2023-09-30T02:42:55.890Z,7.87
2023-09-30T02:45:23.988Z,15.07
2023-09-30T02:47:52.086Z,12.20
2023-09-30T02:50:22.496Z,5.17
2023-09-30T02:52:51.137Z,15.27
2023-09-30T02:55:19.205Z,11.77
2023-09-30T02:57:48.295Z,5.70
2023-09-30T03:00:22.033Z,10.40
2023-09-30T03:02:50.136Z,13.23
2023-09-30T03:05:18.317Z,11.37
2023-09-30T03:07:47.832Z,12.67
2023-09-30T03:10:21.308Z,13.27
2023-09-30T03:12:49.671Z,8.80
2023-09-30T03:15:18.006Z,11.33
2023-09-30T03:17:45.974Z,11.83
2023-09-30T03:20:15.633Z,9.47
2023-09-30T03:22:43.924Z,8.60
2023-09-30T03:25:13.670Z,6.67
2023-09-30T03:27:42.256Z,8.13
2023-09-30T03:30:13.990Z,8.70
2023-09-30T03:32:41.905Z,5.73
2023-09-30T03:35:11.864Z,11.07
2023-09-30T03:37:39.870Z,9.40
2023-09-30T03:40:15.699Z,13.20
2023-09-30T03:42:45.290Z,3.07
2023-09-30T03:45:14.925Z,10.10
2023-09-30T03:47:45.076Z,11.83
2023-09-30T03:50:16.678Z,8.27
2023-09-30T03:52:48.482Z,7.10
2023-09-30T03:55:19.174Z,6.53
2023-09-30T03:57:50.438Z,10.10
2023-09-30T04:00:21.730Z,9.30
2023-09-30T04:02:51.498Z,9.23
2023-09-30T04:05:21.157Z,4.50
2023-09-30T04:07:49.168Z,6.60
2023-09-30T04:10:19.223Z,9.40
2023-09-30T04:12:50.301Z,19.03
2023-09-30T04:15:18.638Z,11.33
2023-09-30T04:17:46.810Z,7.10
2023-09-30T04:20:21.676Z,7.23
2023-09-30T04:22:50.726Z,9.07
2023-09-30T04:25:19.235Z,4.30
2023-09-30T04:27:49.569Z,13.23
2023-09-30T04:30:20.025Z,6.90
2023-09-30T04:32:48.092Z,9.50
2023-09-30T04:35:16.213Z,3.70
2023-09-30T04:37:45.018Z,6.63
2023-09-30T04:40:17.203Z,3.83
2023-09-30T04:42:45.730Z,8.97
2023-09-30T04:45:14.237Z,6.27
2023-09-30T04:47:45.772Z,5.50
2023-09-30T04:50:17.712Z,7.87
2023-09-30T04:52:47.011Z,14.27
2023-09-30T04:55:17.292Z,10.50
2023-09-30T04:57:46.890Z,5.90
2023-09-30T05:00:16.005Z,6.43
2023-09-30T05:02:46.256Z,12.27
2023-09-30T05:05:14.317Z,11.17
2023-09-30T05:07:42.374Z,9.17
2023-09-30T05:10:14.477Z,5.40
2023-09-30T05:12:46.875Z,9.27
2023-09-30T05:15:16.810Z,11.23
2023-09-30T05:17:46.612Z,4.57
2023-09-30T05:20:14.912Z,6.17
2023-09-30T05:22:46.063Z,9.83
2023-09-30T05:25:14.265Z,5.97
2023-09-30T05:27:42.202Z,5.97
2023-09-30T05:30:12.032Z,10.40
2023-09-30T05:32:40.425Z,11.60
2023-09-30T05:35:14.014Z,4.33
2023-09-30T05:37:42.620Z,6.93
2023-09-30T05:40:17.915Z,11.63
2023-09-30T05:42:46.494Z,8.10
2023-09-30T05:45:15.001Z,9.00
2023-09-30T05:47:43.012Z,5.77
2023-09-30T05:50:15.758Z,5.00
2023-09-30T05:52:43.985Z,5.93
2023-09-30T05:55:11.937Z,12.70
2023-09-30T05:57:40.341Z,9.73
2023-09-30T06:00:28.925Z,5.53
2023-09-30T06:02:56.916Z,5.97
2023-09-30T06:05:27.562Z,5.70
2023-09-30T06:07:56.312Z,6.37
2023-09-30T06:10:24.302Z,8.07
2023-09-30T06:12:56.266Z,6.47
2023-09-30T06:15:27.796Z,6.10
2023-09-30T06:17:55.969Z,6.93
2023-09-30T06:20:27.848Z,3.30
2023-09-30T06:22:58.088Z,9.20
2023-09-30T06:25:26.325Z,9.47
2023-09-30T06:27:55.805Z,4.20
2023-09-30T06:30:30.879Z,6.43
2023-09-30T06:33:01.377Z,10.43
2023-09-30T06:35:31.245Z,10.63
2023-09-30T06:38:01.014Z,6.80
2023-09-30T06:40:29.520Z,6.03
2023-09-30T06:42:58.292Z,6.03
2023-09-30T06:45:27.524Z,3.90
2023-09-30T06:47:56.010Z,7.63
2023-09-30T06:50:25.120Z,4.87
2023-09-30T06:52:53.162Z,6.60
2023-09-30T06:55:22.555Z,6.30
2023-09-30T06:57:50.551Z,4.37
2023-09-30T07:00:18.819Z,8.70
2023-09-30T07:02:47.507Z,8.90
2023-09-30T07:05:16.405Z,5.20
2023-09-30T07:07:44.896Z,4.90
2023-09-30T07:10:13.313Z,7.00
2023-09-30T07:12:43.183Z,6.37
2023-09-30T07:15:12.093Z,6.50
2023-09-30T07:17:42.205Z,8.87
2023-09-30T07:20:12.794Z,5.13
2023-09-30T07:25:11.697Z,5.43
2023-09-30T07:27:39.764Z,2.77
2023-09-30T07:30:11.015Z,4.83
2023-09-30T07:32:39.024Z,6.07
2023-09-30T07:35:08.084Z,1.97
2023-09-30T07:37:36.214Z,4.43
2023-09-30T07:40:04.499Z,7.53
2023-09-30T07:42:36.133Z,13.17
2023-09-30T07:45:05.177Z,5.80
2023-09-30T07:47:35.279Z,10.27
2023-09-30T07:50:07.726Z,6.57
2023-09-30T07:52:35.755Z,6.57
2023-09-30T07:55:06.218Z,3.93
2023-09-30T07:57:34.659Z,11.53
2023-09-30T08:00:03.443Z,7.80
2023-09-30T08:02:34.517Z,4.67
2023-09-30T08:05:04.949Z,7.17
2023-09-30T08:07:32.971Z,3.50
2023-09-30T08:10:01.013Z,5.10
2023-09-30T08:12:31.307Z,7.57
2023-09-30T08:14:59.382Z,8.27
2023-09-30T08:17:27.835Z,6.27
2023-09-30T08:19:55.851Z,4.90
2023-09-30T08:22:28.715Z,5.43
2023-09-30T08:24:56.894Z,7.83
2023-09-30T08:27:25.219Z,6.00
2023-09-30T08:29:53.404Z,4.10
2023-09-30T08:32:22.589Z,8.77
2023-09-30T08:34:50.692Z,7.33
2023-09-30T08:37:19.055Z,3.27
2023-09-30T08:39:48.400Z,8.40
2023-09-30T08:42:16.823Z,3.90
2023-09-30T08:44:44.827Z,6.70
2023-09-30T08:47:12.844Z,4.83
2023-09-30T08:49:41.580Z,4.83
2023-09-30T08:52:10.084Z,8.13
2023-09-30T08:54:38.761Z,8.70
2023-09-30T08:57:08.219Z,8.97
2023-09-30T08:59:37.013Z,11.30
2023-09-30T09:02:05.257Z,7.63
2023-09-30T09:04:33.484Z,7.90
2023-09-30T09:07:02.905Z,9.63
2023-09-30T09:09:30.904Z,4.83
2023-09-30T09:11:59.489Z,5.03
2023-09-30T09:14:40.854Z,8.07
2023-09-30T09:17:09.197Z,6.90
2023-09-30T09:19:37.897Z,7.23
2023-09-30T09:22:08.265Z,7.87
2023-09-30T09:24:36.996Z,9.57
2023-09-30T09:27:08.771Z,11.37
2023-09-30T09:29:40.924Z,4.50
2023-09-30T09:32:10.203Z,10.67
2023-09-30T09:34:38.124Z,15.03
2023-09-30T09:37:16.359Z,12.87
2023-09-30T09:39:54.492Z,10.03
2023-09-30T09:42:26.905Z,5.73
2023-09-30T09:44:58.840Z,9.00
2023-09-30T09:47:26.917Z,10.40
2023-09-30T09:49:55.487Z,9.87
2023-09-30T09:52:24.260Z,10.53
2023-09-30T09:54:52.794Z,8.67
2023-09-30T09:57:21.087Z,10.57
2023-09-30T09:59:49.449Z,14.63
2023-09-30T10:02:19.349Z,8.30
2023-09-30T10:04:47.709Z,11.97
2023-09-30T10:07:20.250Z,12.87
2023-09-30T10:09:49.353Z,6.10
2023-09-30T10:12:17.536Z,7.77
2023-09-30T10:14:45.424Z,7.50
2023-09-30T10:17:13.421Z,12.53
2023-09-30T10:20:07.595Z,11.43
2023-09-30T10:22:35.836Z,11.63
2023-09-30T10:25:06.606Z,8.73
2023-09-30T10:27:39.142Z,10.53
2023-09-30T10:30:14.610Z,8.07
2023-09-30T10:33:13.284Z,10.03
2023-09-30T10:35:48.871Z,7.23
2023-09-30T10:38:39.067Z,15.53
2023-09-30T10:41:07.476Z,8.67
2023-09-30T10:43:36.764Z,11.10
2023-09-30T10:46:07.044Z,6.30
2023-09-30T10:48:37.126Z,9.97
2023-09-30T10:51:22.121Z,12.47
2023-09-30T10:53:52.603Z,13.53
2023-09-30T10:56:20.978Z,9.13
2023-09-30T10:58:49.839Z,6.77
2023-09-30T11:01:18.946Z,13.30
2023-09-30T11:03:47.562Z,7.77
2023-09-30T11:06:18.813Z,8.33
2023-09-30T11:08:52.965Z,5.13
2023-09-30T11:11:20.914Z,8.00
2023-09-30T11:13:48.840Z,8.23
2023-09-30T11:16:16.752Z,6.57
2023-09-30T11:18:44.803Z,11.10
2023-09-30T11:21:14.409Z,11.87
2023-09-30T11:23:43.224Z,7.97
2023-09-30T11:26:14.607Z,8.93
2023-09-30T11:28:43.851Z,5.97
2023-09-30T11:31:14.573Z,11.23
2023-09-30T11:33:53.861Z,8.00
2023-09-30T11:36:22.941Z,12.20
2023-09-30T11:38:52.159Z,11.60
2023-09-30T11:41:23.497Z,14.53
2023-09-30T11:44:02.122Z,7.73
2023-09-30T11:46:30.174Z,11.23
2023-09-30T11:49:03.510Z,10.80
2023-09-30T11:51:32.563Z,9.37
2023-09-30T11:54:01.348Z,9.50
2023-09-30T11:56:31.438Z,8.77
2023-09-30T11:59:00.396Z,10.17
2023-09-30T12:01:32.342Z,8.43
2023-09-30T12:04:00.776Z,9.70
2023-09-30T12:06:29.138Z,12.23
2023-09-30T12:08:57.714Z,8.60
2023-09-30T12:11:26.997Z,14.17
2023-09-30T12:13:56.508Z,13.43
2023-09-30T12:16:25.274Z,15.63
2023-09-30T12:18:53.312Z,14.50
2023-09-30T12:21:22.656Z,14.70
2023-09-30T12:23:52.734Z,13.20
2023-09-30T12:26:21.364Z,8.37
2023-09-30T12:28:49.556Z,12.00
2023-09-30T12:31:19.769Z,10.10
2023-09-30T12:33:51.807Z,12.37
2023-09-30T12:36:29.105Z,10.70
2023-09-30T12:38:57.126Z,21.03
2023-09-30T12:41:25.468Z,15.20
2023-09-30T12:43:54.588Z,16.53
2023-09-30T12:46:24.036Z,18.20
2023-09-30T12:48:52.436Z,10.83
2023-09-30T12:51:20.528Z,13.30
2023-09-30T12:53:48.441Z,13.20
2023-09-30T12:56:16.544Z,13.57
2023-09-30T12:58:44.497Z,14.80
2023-09-30T13:01:22.241Z,16.90
2023-09-30T13:03:52.572Z,10.27
2023-09-30T13:06:21.409Z,11.37
2023-09-30T13:08:49.952Z,11.23
2023-09-30T13:11:18.635Z,7.90
2023-09-30T13:13:46.985Z,7.70
2023-09-30T13:16:15.218Z,13.43
2023-09-30T13:18:43.670Z,16.77
2023-09-30T13:21:13.665Z,14.27
2023-09-30T13:23:41.595Z,9.50
2023-09-30T13:26:09.546Z,10.60
2023-09-30T13:28:37.476Z,12.63
2023-09-30T13:31:05.517Z,14.67
2023-09-30T13:33:33.714Z,13.93
2023-09-30T13:36:01.685Z,11.73
2023-09-30T13:38:30.921Z,11.43
2023-09-30T13:40:58.869Z,14.50
2023-09-30T13:43:27.670Z,10.13
2023-09-30T13:45:55.743Z,14.33
2023-09-30T13:48:24.238Z,14.50
2023-09-30T13:50:52.238Z,19.75
2023-09-30T13:53:20.372Z,15.10
2023-09-30T13:55:49.682Z,13.37
2023-09-30T13:58:17.636Z,14.43
2023-09-30T14:00:49.351Z,17.30
2023-09-30T14:03:17.461Z,18.20
2023-09-30T14:05:46.552Z,16.77
2023-09-30T14:08:14.611Z,18.90
2023-09-30T14:10:42.552Z,23.10
2023-09-30T14:13:12.114Z,16.40
2023-09-30T14:15:40.421Z,21.83
2023-09-30T14:18:09.182Z,14.50
2023-09-30T14:20:37.485Z,18.75
2023-09-30T14:23:05.657Z,17.30
2023-09-30T14:25:33.734Z,14.93
2023-09-30T14:28:01.809Z,12.57
2023-09-30T14:30:31.567Z,11.95
2023-09-30T14:32:59.958Z,15.18
2023-09-30T14:35:27.962Z,12.00
2023-09-30T14:37:56.232Z,12.70
2023-09-30T14:40:24.335Z,13.52
2023-09-30T14:42:52.529Z,11.97
2023-09-30T14:45:22.920Z,11.43
2023-09-30T14:47:52.450Z,14.90
2023-09-30T14:50:20.374Z,10.20
2023-09-30T14:52:49.061Z,14.43
2023-09-30T14:55:17.775Z,13.33
2023-09-30T14:57:45.959Z,10.00
2023-09-30T15:00:16.604Z,12.83
2023-09-30T15:02:44.622Z,15.23
2023-09-30T15:05:14.093Z,12.27
2023-09-30T15:07:42.081Z,12.67
2023-09-30T15:10:10.725Z,15.37
2023-09-30T15:12:40.570Z,7.33
2023-09-30T15:15:10.078Z,11.03
2023-09-30T15:17:38.059Z,8.47
2023-09-30T15:20:07.644Z,12.17
2023-09-30T15:22:37.287Z,11.63
2023-09-30T15:25:05.797Z,16.10
2023-09-30T15:27:33.822Z,14.07
2023-09-30T15:30:01.850Z,16.53
2023-09-30T15:32:30.134Z,12.10
2023-09-30T15:34:58.104Z,14.97
2023-09-30T15:37:26.190Z,15.00
2023-09-30T15:39:55.888Z,17.33
2023-09-30T15:42:23.882Z,11.63
2023-09-30T15:44:57.192Z,18.97
2023-09-30T15:47:25.717Z,14.27
2023-09-30T15:49:54.034Z,14.67
2023-09-30T15:52:22.890Z,20.43
2023-09-30T15:54:51.543Z,16.47
2023-09-30T15:57:20.936Z,17.37
2023-09-30T15:59:49.943Z,15.67
2023-09-30T16:02:17.982Z,12.30
2023-09-30T16:04:46.050Z,17.07
2023-09-30T16:07:14.407Z,16.03
2023-09-30T16:09:42.802Z,14.70
2023-09-30T16:12:10.969Z,11.37
2023-09-30T16:14:40.314Z,15.27
2023-09-30T16:17:08.395Z,17.33
2023-09-30T16:19:36.458Z,14.37
2023-09-30T16:22:04.676Z,16.07
2023-09-30T16:24:32.807Z,18.57
2023-09-30T16:27:00.764Z,12.77
2023-09-30T16:29:28.726Z,11.57
2023-09-30T16:31:58.232Z,11.87
2023-09-30T16:34:26.308Z,17.77
2023-09-30T16:36:54.627Z,14.47
2023-09-30T16:39:22.732Z,13.37
2023-09-30T16:41:50.720Z,16.37
2023-09-30T16:44:18.660Z,17.33
2023-09-30T16:46:50.276Z,13.23
2023-09-30T16:49:20.086Z,19.50
2023-09-30T16:51:48.109Z,15.40
2023-09-30T16:54:16.263Z,15.97
2023-09-30T16:56:44.881Z,14.37
2023-09-30T16:59:14.888Z,20.53
2023-09-30T17:01:42.967Z,17.77
2023-09-30T17:04:11.881Z,22.67
2023-09-30T17:06:42.514Z,18.83
2023-09-30T17:09:12.155Z,19.53
2023-09-30T17:11:40.234Z,13.37
2023-09-30T17:14:08.202Z,15.10
2023-09-30T17:16:36.212Z,14.93
2023-09-30T17:19:04.324Z,15.27
2023-09-30T17:21:32.359Z,18.97
2023-09-30T17:24:02.389Z,16.70
2023-09-30T17:26:30.632Z,19.03
2023-09-30T17:28:58.693Z,18.30
2023-09-30T17:31:27.758Z,22.27
2023-09-30T17:33:56.120Z,16.87
2023-09-30T17:36:26.614Z,19.50
2023-09-30T17:38:54.669Z,16.63
2023-09-30T17:41:23.986Z,17.03
2023-09-30T17:43:52.040Z,20.23
2023-09-30T17:46:20.824Z,27.20
2023-09-30T17:48:49.508Z,16.67
2023-09-30T17:51:20.935Z,17.47
2023-09-30T17:53:49.553Z,15.73
2023-09-30T17:56:17.652Z,16.17
2023-09-30T17:58:47.256Z,20.70
2023-09-30T18:01:16.321Z,19.90
2023-09-30T18:03:47.220Z,22.20
2023-09-30T18:06:15.461Z,17.07
2023-09-30T18:08:44.067Z,14.63
2023-09-30T18:11:12.617Z,16.13
2023-09-30T18:13:40.923Z,17.13
2023-09-30T18:16:10.585Z,23.83
2023-09-30T18:18:39.581Z,15.80
2023-09-30T18:21:07.607Z,13.40
2023-09-30T18:23:36.277Z,18.77
2023-09-30T18:26:04.338Z,17.27
2023-09-30T18:28:32.931Z,16.77
2023-09-30T18:31:01.172Z,15.43
2023-09-30T18:33:30.668Z,12.83
2023-09-30T18:36:00.117Z,17.60
2023-09-30T18:38:28.277Z,11.30
2023-09-30T18:40:56.216Z,14.33
2023-09-30T18:43:26.164Z,13.73
2023-09-30T18:45:54.231Z,14.23
2023-09-30T18:48:22.492Z,13.17
2023-09-30T18:50:53.105Z,10.67
2023-09-30T18:53:21.747Z,12.90
2023-09-30T18:55:49.920Z,9.83
2023-09-30T18:58:18.290Z,9.50
2023-09-30T19:00:47.728Z,11.80
2023-09-30T19:03:17.018Z,10.40
2023-09-30T19:05:45.002Z,7.63
2023-09-30T19:08:14.479Z,8.93
2023-09-30T19:10:42.782Z,10.57
2023-09-30T19:13:10.777Z,10.90
2023-09-30T19:15:39.697Z,9.63
2023-09-30T19:18:07.945Z,11.23
2023-09-30T19:20:36.040Z,7.73
2023-09-30T19:23:04.316Z,9.20
2023-09-30T19:25:33.627Z,8.97
2023-09-30T19:28:01.649Z,7.60
2023-09-30T19:30:30.903Z,13.77
2023-09-30T19:32:58.939Z,4.57
2023-09-30T19:35:27.230Z,5.73
2023-09-30T19:37:56.769Z,6.33
2023-09-30T19:40:25.066Z,3.83
2023-09-30T19:42:54.647Z,5.73
2023-09-30T19:45:24.291Z,6.27
2023-09-30T19:47:52.529Z,4.67
2023-09-30T19:50:20.746Z,3.87
2023-09-30T19:52:48.659Z,5.23
2023-09-30T19:55:16.816Z,7.27
2023-09-30T19:57:44.915Z,4.57
2023-09-30T20:00:17.677Z,6.80
2023-09-30T20:02:46.841Z,5.10
2023-09-30T20:05:15.207Z,3.43
2023-09-30T20:07:43.200Z,2.57
2023-09-30T20:10:11.512Z,6.30
2023-09-30T20:12:39.726Z,5.00
2023-09-30T20:15:09.910Z,4.97
2023-09-30T20:17:39.605Z,6.33
2023-09-30T20:20:16.432Z,3.03
2023-09-30T20:22:47.500Z,2.20
2023-09-30T20:25:15.623Z,3.93
2023-09-30T20:27:44.029Z,2.50
2023-09-30T20:30:12.648Z,4.07
2023-09-30T20:32:42.666Z,1.80
2023-09-30T20:35:11.312Z,2.63
2023-09-30T20:37:40.216Z,2.33
2023-09-30T20:40:12.339Z,2.77
2023-09-30T20:42:40.844Z,2.50
2023-09-30T20:45:09.842Z,1.90
2023-09-30T20:47:37.878Z,3.07
2023-09-30T20:50:09.021Z,1.43
2023-09-30T20:52:37.135Z,3.17
2023-09-30T20:55:06.533Z,2.00
2023-09-30T20:57:34.815Z,5.03
2023-09-30T21:00:04.804Z,3.30
2023-09-30T21:02:33.808Z,1.17
2023-09-30T21:05:01.887Z,3.17
2023-09-30T21:07:31.409Z,1.67
2023-09-30T21:09:59.432Z,2.73
2023-09-30T21:12:28.144Z,1.60
2023-09-30T21:14:56.104Z,2.90
2023-09-30T21:17:24.121Z,3.03
2023-09-30T21:19:52.400Z,1.57
2023-09-30T21:22:20.705Z,2.27
2023-09-30T21:24:50.353Z,2.00
2023-09-30T21:27:19.044Z,1.87
2023-09-30T21:29:47.025Z,5.37
2023-09-30T21:32:15.027Z,1.50
2023-09-30T21:34:42.972Z,2.03
2023-09-30T21:37:10.992Z,1.83
2023-09-30T21:39:38.957Z,3.57
2023-09-30T21:42:08.767Z,1.83
2023-09-30T21:44:37.175Z,3.83
2023-09-30T21:47:05.364Z,3.37
2023-09-30T21:49:33.357Z,1.40
2023-09-30T21:52:01.524Z,1.20
2023-09-30T21:54:29.477Z,1.40
2023-09-30T21:56:57.542Z,1.20
2023-09-30T21:59:26.951Z,1.83
2023-09-30T22:01:55.221Z,1.97
2023-09-30T22:04:23.315Z,1.70
2023-09-30T22:06:51.618Z,1.50
2023-09-30T22:09:19.541Z,2.30
2023-09-30T22:11:47.636Z,1.20
2023-09-30T22:14:16.539Z,1.30
2023-09-30T22:16:46.047Z,1.87
2023-09-30T22:19:14.097Z,1.60
2023-09-30T22:21:42.120Z,1.17
2023-09-30T22:24:10.774Z,2.37
2023-09-30T22:26:38.916Z,1.37
2023-09-30T22:29:06.825Z,1.30
2023-09-30T22:31:35.162Z,1.10
2023-09-30T22:34:05.280Z,1.20
2023-09-30T22:36:45.668Z,1.00
2023-09-30T22:39:16.580Z,1.00
2023-09-30T22:41:45.872Z,1.00
2023-09-30T22:44:13.825Z,1.10
2023-09-30T22:46:42.004Z,1.20
2023-09-30T22:49:11.588Z,2.43
2023-09-30T22:51:39.498Z,0.90
2023-09-30T22:54:07.801Z,1.00
2023-09-30T22:56:35.957Z,0.90
2023-09-30T22:59:05.287Z,1.07
2023-09-30T23:01:33.324Z,1.90
2023-09-30T23:04:02.032Z,1.50
2023-09-30T23:06:32.198Z,0.93
2023-09-30T23:09:00.414Z,0.83
2023-09-30T23:11:28.924Z,0.93
2023-09-30T23:13:56.955Z,1.00
2023-09-30T23:16:25.431Z,1.07
2023-09-30T23:18:54.566Z,0.80
2023-09-30T23:21:22.579Z,0.90
2023-09-30T23:23:51.891Z,0.80
2023-09-30T23:26:20.261Z,0.80
2023-09-30T23:28:49.399Z,0.70
2023-09-30T23:31:19.412Z,0.73
2023-09-30T23:33:49.478Z,0.80
2023-09-30T23:36:18.539Z,1.17
2023-09-30T23:38:46.669Z,0.70
2023-09-30T23:41:16.292Z,1.57
2023-09-30T23:43:44.417Z,2.00
2023-09-30T23:46:13.193Z,2.20
2023-09-30T23:48:41.903Z,1.60
2023-09-30T23:51:10.892Z,0.90
2023-09-30T23:53:39.414Z,1.13
2023-09-30T23:56:12.407Z,0.83
2023-09-30T23:58:41.702Z,0.77
